createdAt,value
2019-04-25T00:00:41.997Z,12.65
2019-04-25T00:03:12.729Z,12.58
2019-04-25T00:05:43.594Z,12.51
2019-04-25T00:08:14.232Z,12.65
2019-04-25T00:10:45.428Z,12.71
2019-04-25T00:13:16.069Z,12.60
2019-04-25T00:15:47.094Z,12.65
2019-04-25T00:18:17.601Z,12.65
2019-04-25T00:20:49.632Z,12.72
2019-04-25T00:23:21.766Z,12.76
2019-04-25T00:26:01.235Z,12.67
2019-04-25T00:28:31.815Z,12.68
2019-04-25T00:31:02.482Z,12.95
2019-04-25T00:33:33.001Z,12.84
2019-04-25T00:36:03.835Z,12.72
2019-04-25T00:38:34.411Z,12.76
2019-04-25T00:41:05.054Z,12.66
2019-04-25T00:43:35.471Z,12.69
2019-04-25T00:46:05.921Z,12.59
2019-04-25T00:48:36.402Z,12.53
2019-04-25T00:51:06.853Z,12.37
2019-04-25T00:53:37.317Z,12.40
2019-04-25T00:56:07.784Z,12.42
2019-04-25T00:58:39.909Z,12.44
2019-04-25T01:01:12.163Z,12.31
2019-04-25T01:03:44.138Z,12.30
2019-04-25T01:06:15.056Z,12.30
2019-04-25T01:08:45.824Z,12.22
2019-04-25T01:11:16.381Z,12.10
2019-04-25T01:13:46.865Z,12.04
2019-04-25T01:16:17.337Z,12.09
2019-04-25T01:18:48.754Z,12.13
2019-04-25T01:21:19.201Z,12.10
2019-04-25T01:23:49.724Z,12.11
2019-04-25T01:26:20.230Z,11.98
2019-04-25T01:28:50.791Z,11.94
2019-04-25T01:31:23.351Z,12.06
2019-04-25T01:33:55.612Z,12.04
2019-04-25T01:36:33.435Z,12.08
2019-04-25T01:39:06.629Z,11.94
2019-04-25T01:41:38.695Z,12.01
2019-04-25T01:44:16.452Z,12.00
2019-04-25T01:46:48.177Z,11.96
2019-04-25T01:49:18.825Z,12.03
2019-04-25T01:51:50.312Z,11.89
2019-04-25T01:54:20.885Z,11.92
2019-04-25T01:56:51.323Z,12.09
2019-04-25T01:59:21.814Z,12.00
2019-04-25T02:01:52.960Z,11.91
2019-04-25T02:04:24.497Z,12.04
2019-04-25T02:06:55.680Z,12.04
2019-04-25T02:09:26.517Z,12.06
2019-04-25T02:12:01.250Z,12.08
2019-04-25T02:14:33.552Z,12.11
2019-04-25T02:17:04.614Z,12.16
2019-04-25T02:19:35.749Z,12.13
2019-04-25T02:22:06.408Z,12.21
2019-04-25T02:24:36.876Z,12.11
2019-04-25T02:27:07.329Z,12.24
2019-04-25T02:29:37.834Z,12.24
2019-04-25T02:32:09.137Z,12.32
2019-04-25T02:34:39.791Z,12.43
2019-04-25T02:37:10.309Z,12.51
2019-04-25T02:39:40.778Z,12.53
2019-04-25T02:42:11.238Z,12.66
2019-04-25T02:44:44.527Z,12.59
2019-04-25T02:47:34.437Z,12.52
2019-04-25T02:50:15.073Z,12.42
2019-04-25T02:52:50.377Z,12.51
2019-04-25T02:55:30.963Z,12.46
2019-04-25T02:57:54.193Z,12.54
2019-04-25T03:00:45.446Z,12.53
2019-04-25T03:03:02.384Z,12.51
2019-04-25T03:05:35.318Z,12.59
2019-04-25T03:08:09.034Z,12.58
2019-04-25T03:10:37.822Z,12.71
2019-04-25T03:13:11.433Z,12.71
2019-04-25T03:15:40.673Z,12.79
2019-04-25T03:18:14.562Z,12.79
2019-04-25T03:20:47.848Z,12.84
2019-04-25T03:23:35.443Z,12.85
2019-04-25T03:26:07.473Z,12.92
2019-04-25T03:28:38.117Z,12.97
2019-04-25T03:31:15.228Z,13.01
2019-04-25T03:33:40.747Z,13.00
2019-04-25T03:36:11.147Z,13.10
2019-04-25T03:38:41.600Z,13.09
2019-04-25T03:41:14.356Z,13.15
2019-04-25T03:43:45.052Z,13.16
2019-04-25T03:46:15.547Z,13.20
2019-04-25T03:48:46.027Z,13.21
2019-04-25T03:51:16.603Z,13.32
2019-04-25T03:53:47.006Z,13.34
2019-04-25T03:56:19.046Z,13.31
2019-04-25T03:58:49.490Z,13.40
2019-04-25T04:01:20.015Z,13.48
2019-04-25T04:03:50.413Z,13.52
2019-04-25T04:06:21.033Z,13.64
2019-04-25T04:08:51.503Z,13.64
2019-04-25T04:11:23.697Z,13.58
2019-04-25T04:13:55.507Z,13.74
2019-04-25T04:16:27.602Z,13.77
2019-04-25T04:18:58.193Z,13.92
2019-04-25T04:21:39.061Z,14.00
2019-04-25T04:24:17.190Z,13.99
2019-04-25T04:26:49.254Z,14.00
2019-04-25T04:29:19.724Z,14.04
2019-04-25T04:31:50.225Z,14.06
2019-04-25T04:34:20.747Z,14.04
2019-04-25T04:36:51.235Z,14.06
2019-04-25T04:39:21.695Z,14.12
2019-04-25T04:41:53.538Z,14.33
2019-04-25T04:44:24.402Z,14.43
2019-04-25T04:46:55.096Z,14.71
2019-04-25T04:49:25.557Z,14.79
2019-04-25T04:51:56.206Z,14.94
2019-04-25T04:54:26.682Z,15.10
2019-04-25T04:56:57.208Z,15.14
2019-04-25T04:59:27.659Z,15.21
2019-04-25T05:02:14.601Z,15.38
2019-04-25T05:04:45.180Z,15.63
2019-04-25T05:07:33.880Z,15.77
2019-04-25T05:10:05.311Z,15.86
2019-04-25T05:12:35.794Z,16.06
2019-04-25T05:15:08.347Z,16.09
2019-04-25T05:17:38.824Z,16.29
2019-04-25T05:20:09.502Z,16.35
2019-04-25T05:22:40.181Z,16.40
2019-04-25T05:25:10.911Z,16.31
2019-04-25T05:27:59.090Z,16.57
2019-04-25T05:30:16.629Z,16.62
2019-04-25T05:32:47.668Z,16.70
2019-04-25T05:35:18.161Z,16.81
2019-04-25T05:37:48.650Z,17.03
2019-04-25T05:40:20.067Z,17.00
2019-04-25T05:42:52.180Z,17.05
2019-04-25T05:45:24.674Z,17.09
2019-04-25T05:47:55.331Z,17.11
2019-04-25T05:50:26.284Z,17.13
2019-04-25T05:52:57.142Z,17.35
2019-04-25T05:55:27.968Z,17.18
2019-04-25T05:57:58.449Z,17.36
2019-04-25T06:00:30.484Z,17.45
2019-04-25T06:03:00.983Z,17.43
2019-04-25T06:05:33.211Z,17.60
2019-04-25T06:08:04.342Z,17.78
2019-04-25T06:10:48.851Z,17.95
2019-04-25T06:13:36.028Z,17.94
2019-04-25T06:16:08.065Z,18.25
2019-04-25T06:18:48.961Z,18.34
2019-04-25T06:21:19.992Z,18.38
2019-04-25T06:23:52.178Z,18.68
2019-04-25T06:26:33.281Z,18.98
2019-04-25T06:28:59.524Z,18.96
2019-04-25T06:31:29.239Z,18.80
2019-04-25T06:33:59.297Z,18.80
2019-04-25T06:36:31.172Z,19.01
2019-04-25T06:39:01.666Z,18.86
2019-04-25T06:41:32.207Z,18.76
2019-04-25T06:44:04.344Z,18.85
2019-04-25T06:46:44.059Z,19.07
2019-04-25T06:49:16.244Z,19.31
2019-04-25T06:51:50.959Z,19.47
2019-04-25T06:54:22.007Z,19.49
2019-04-25T06:56:53.725Z,19.96
2019-04-25T06:59:25.911Z,20.18
2019-04-25T07:01:56.497Z,20.29
2019-04-25T07:04:28.060Z,20.43
2019-04-25T07:07:09.659Z,20.68
2019-04-25T07:09:34.297Z,20.74
2019-04-25T07:12:03.975Z,20.40
2019-04-25T07:14:38.448Z,20.70
2019-04-25T07:17:09.770Z,21.08
2019-04-25T07:19:40.328Z,21.15
2019-04-25T07:22:11.797Z,21.14
2019-04-25T07:24:43.924Z,21.15
2019-04-25T07:27:19.186Z,21.26
2019-04-25T07:30:04.122Z,21.53
2019-04-25T07:32:39.066Z,21.52
2019-04-25T07:35:09.652Z,21.62
2019-04-25T07:37:41.717Z,21.78
2019-04-25T07:40:13.916Z,21.60
2019-04-25T07:42:44.349Z,21.69
2019-04-25T07:45:19.138Z,21.85
2019-04-25T07:47:53.932Z,22.15
2019-04-25T07:50:24.534Z,22.21
2019-04-25T07:53:01.429Z,22.26
2019-04-25T07:55:39.853Z,22.29
2019-04-25T07:58:10.483Z,22.47
2019-04-25T08:00:43.840Z,22.67
2019-04-25T08:03:17.708Z,22.85
2019-04-25T08:06:05.253Z,22.82
2019-04-25T08:08:38.119Z,22.85
2019-04-25T08:11:10.181Z,23.11
2019-04-25T08:14:00.659Z,23.14
2019-04-25T08:16:34.758Z,23.39
2019-04-25T08:19:07.091Z,23.08
2019-04-25T08:21:38.405Z,23.19
2019-04-25T08:24:10.456Z,23.67
2019-04-25T08:26:41.772Z,23.43
2019-04-25T08:29:13.324Z,23.83
2019-04-25T08:31:45.302Z,24.07
2019-04-25T08:34:16.788Z,23.61
2019-04-25T08:36:48.544Z,23.65
2019-04-25T08:39:19.072Z,23.85
2019-04-25T08:41:49.657Z,23.92
2019-04-25T08:44:20.155Z,24.61
2019-04-25T08:46:50.799Z,24.43
2019-04-25T08:49:31.543Z,24.46
2019-04-25T08:52:13.138Z,24.41
2019-04-25T08:55:11.038Z,24.38
2019-04-25T08:57:51.614Z,24.77
2019-04-25T09:00:42.444Z,25.04
2019-04-25T09:03:15.294Z,25.28
2019-04-25T09:05:47.802Z,25.55
2019-04-25T09:08:18.771Z,25.20
2019-04-25T09:10:49.339Z,25.34
2019-04-25T09:13:20.259Z,25.21
2019-04-25T09:15:51.523Z,25.44
2019-04-25T09:18:23.865Z,25.68
2019-04-25T09:20:55.688Z,25.84
2019-04-25T09:23:26.858Z,26.02
2019-04-25T09:25:59.944Z,26.09
2019-04-25T09:28:37.601Z,25.99
2019-04-25T09:31:11.440Z,25.87
2019-04-25T09:33:45.096Z,26.38
2019-04-25T09:36:16.856Z,26.61
2019-04-25T09:38:50.550Z,26.31
2019-04-25T09:41:21.056Z,26.58
2019-04-25T09:43:54.872Z,26.89
2019-04-25T09:46:28.554Z,25.74
2019-04-25T09:49:14.138Z,26.24
2019-04-25T09:51:49.040Z,26.69
2019-04-25T09:54:30.238Z,26.93
2019-04-25T09:57:18.531Z,27.03
2019-04-25T09:59:49.800Z,27.23
2019-04-25T10:02:20.593Z,26.99
2019-04-25T10:04:51.179Z,27.00
2019-04-25T10:07:22.170Z,27.02
2019-04-25T10:09:54.473Z,27.21
2019-04-25T10:12:24.933Z,27.54
2019-04-25T10:15:04.609Z,27.06
2019-04-25T10:17:35.096Z,27.39
2019-04-25T10:20:07.780Z,27.08
2019-04-25T10:22:38.841Z,26.79
2019-04-25T10:25:09.685Z,26.32
2019-04-25T10:27:40.737Z,26.60
2019-04-25T10:30:17.769Z,26.39
2019-04-25T10:32:46.290Z,26.21
2019-04-25T10:35:16.886Z,26.26
2019-04-25T10:37:48.470Z,26.51
2019-04-25T10:40:19.427Z,26.97
2019-04-25T10:42:50.701Z,26.21
2019-04-25T10:45:24.248Z,27.05
2019-04-25T10:47:55.299Z,27.21
2019-04-25T10:50:25.697Z,27.27
2019-04-25T10:52:56.183Z,27.60
2019-04-25T10:55:27.821Z,28.27
2019-04-25T10:57:59.952Z,28.20
2019-04-25T11:00:33.796Z,28.51
2019-04-25T11:03:18.629Z,29.23
2019-04-25T11:05:50.826Z,29.01
2019-04-25T11:08:21.243Z,28.33
2019-04-25T11:10:53.745Z,28.54
2019-04-25T11:13:25.417Z,28.33
2019-04-25T11:15:57.129Z,28.16
2019-04-25T11:18:27.853Z,28.04
2019-04-25T11:20:59.228Z,28.44
2019-04-25T11:23:29.831Z,29.45
2019-04-25T11:26:00.459Z,29.55
2019-04-25T11:28:31.239Z,29.98
2019-04-25T11:31:04.167Z,30.05
2019-04-25T11:33:35.916Z,29.81
2019-04-25T11:36:06.625Z,30.19
2019-04-25T11:38:38.703Z,30.77
2019-04-25T11:41:17.065Z,30.29
2019-04-25T11:43:48.682Z,30.30
2019-04-25T11:46:19.926Z,30.60
2019-04-25T11:48:50.666Z,31.09
2019-04-25T11:51:24.050Z,31.25
2019-04-25T11:53:55.646Z,31.53
2019-04-25T11:56:26.755Z,31.38
2019-04-25T11:58:57.475Z,31.58
2019-04-25T12:01:29.762Z,31.16
2019-04-25T12:04:00.599Z,31.60
2019-04-25T12:06:33.481Z,30.89
2019-04-25T12:09:05.823Z,30.97
2019-04-25T12:11:36.540Z,30.46
2019-04-25T12:14:07.541Z,29.22
2019-04-25T12:16:38.594Z,29.52
2019-04-25T12:19:11.173Z,30.43
2019-04-25T12:21:43.747Z,30.71
2019-04-25T12:24:16.480Z,29.98
2019-04-25T12:26:48.707Z,29.61
2019-04-25T12:29:19.914Z,29.73
2019-04-25T12:31:53.868Z,29.93
2019-04-25T12:34:24.481Z,30.46
2019-04-25T12:36:55.339Z,30.66
2019-04-25T12:39:25.925Z,31.03
2019-04-25T12:41:57.480Z,29.88
2019-04-25T12:44:47.848Z,29.48
2019-04-25T12:47:24.194Z,29.75
2019-04-25T12:49:56.037Z,30.07
2019-04-25T12:52:27.704Z,29.88
2019-04-25T12:54:59.608Z,29.15
2019-04-25T12:57:31.547Z,29.36
2019-04-25T13:00:04.042Z,29.83
2019-04-25T13:02:38.452Z,29.60
2019-04-25T13:05:15.294Z,29.33
2019-04-25T13:07:51.470Z,29.54
2019-04-25T13:10:27.460Z,29.48
2019-04-25T13:13:01.772Z,29.51
2019-04-25T13:15:39.182Z,29.81
2019-04-25T13:18:12.435Z,29.20
2019-04-25T13:20:45.153Z,29.11
2019-04-25T13:23:15.859Z,28.37
2019-04-25T13:25:46.599Z,28.28
2019-04-25T13:28:25.955Z,28.86
2019-04-25T13:31:14.846Z,29.27
2019-04-25T13:33:51.391Z,29.23
2019-04-25T13:36:25.101Z,29.38
2019-04-25T13:38:57.080Z,29.68
2019-04-25T13:41:27.816Z,29.85
2019-04-25T13:43:58.936Z,29.91
2019-04-25T13:46:29.647Z,30.10
2019-04-25T13:49:00.148Z,30.00
2019-04-25T13:51:30.827Z,29.47
2019-04-25T13:54:01.521Z,30.21
2019-04-25T13:56:33.685Z,30.42
2019-04-25T13:59:04.983Z,29.82
2019-04-25T14:01:39.250Z,29.22
2019-04-25T14:04:12.194Z,29.97
2019-04-25T14:06:43.548Z,30.03
2019-04-25T14:09:35.968Z,29.45
2019-04-25T14:12:14.030Z,28.26
2019-04-25T14:14:45.403Z,27.50
2019-04-25T14:17:22.589Z,27.09
2019-04-25T14:19:58.797Z,26.86
2019-04-25T14:22:30.410Z,26.69
2019-04-25T14:25:01.093Z,26.30
2019-04-25T14:27:32.524Z,25.93
2019-04-25T14:30:06.720Z,26.07
2019-04-25T14:32:37.405Z,25.75
2019-04-25T14:35:09.400Z,25.60
2019-04-25T14:37:40.421Z,25.56
2019-04-25T14:40:11.183Z,25.49
2019-04-25T14:42:42.660Z,25.33
2019-04-25T14:45:21.560Z,25.22
2019-04-25T14:47:58.167Z,25.06
2019-04-25T14:50:29.959Z,24.84
2019-04-25T14:53:00.723Z,24.68
2019-04-25T14:55:51.609Z,24.68
2019-04-25T14:58:26.203Z,24.68
2019-04-25T15:00:56.974Z,24.62
2019-04-25T15:03:27.469Z,24.64
2019-04-25T15:05:59.088Z,24.68
2019-04-25T15:08:30.596Z,24.39
2019-04-25T15:11:01.343Z,24.31
2019-04-25T15:13:32.107Z,24.19
2019-04-25T15:16:04.896Z,24.26
2019-04-25T15:18:46.139Z,24.02
2019-04-25T15:21:07.650Z,24.23
2019-04-25T15:23:38.162Z,24.11
2019-04-25T15:26:08.859Z,24.08
2019-04-25T15:28:39.480Z,24.01
2019-04-25T15:31:10.138Z,23.98
2019-04-25T15:33:40.675Z,23.89
2019-04-25T15:36:14.502Z,23.91
2019-04-25T15:38:52.285Z,23.69
2019-04-25T15:41:39.671Z,23.73
2019-04-25T15:44:17.647Z,23.53
2019-04-25T15:46:56.898Z,23.44
2019-04-25T15:49:27.487Z,23.45
2019-04-25T15:51:59.671Z,23.36
2019-04-25T15:54:30.175Z,23.24
2019-04-25T15:57:00.696Z,22.97
2019-04-25T15:59:31.412Z,22.87
2019-04-25T16:02:07.910Z,22.80
2019-04-25T16:04:34.578Z,22.68
2019-04-25T16:07:05.437Z,22.55
2019-04-25T16:09:36.580Z,22.37
2019-04-25T16:12:07.407Z,22.26
2019-04-25T16:14:41.217Z,22.08
2019-04-25T16:17:11.841Z,21.99
2019-04-25T16:19:42.305Z,21.76
2019-04-25T16:22:12.828Z,21.66
2019-04-25T16:24:44.592Z,21.46
2019-04-25T16:27:15.184Z,21.48
2019-04-25T16:29:45.642Z,21.42
2019-04-25T16:32:20.825Z,21.18
2019-04-25T16:34:51.226Z,21.10
2019-04-25T16:37:21.823Z,21.10
2019-04-25T16:39:52.367Z,20.97
2019-04-25T16:42:22.872Z,20.77
2019-04-25T16:44:54.892Z,20.61
2019-04-25T16:47:28.763Z,20.47
2019-04-25T16:50:00.182Z,20.08
2019-04-25T16:52:31.695Z,19.87
2019-04-25T16:55:02.322Z,19.82
2019-04-25T16:57:32.905Z,19.64
2019-04-25T17:00:04.553Z,19.48
2019-04-25T17:02:39.306Z,19.37
2019-04-25T17:05:08.868Z,19.30
2019-04-25T17:07:39.505Z,19.28
2019-04-25T17:10:10.671Z,19.18
2019-04-25T17:12:41.236Z,19.15
2019-04-25T17:15:17.957Z,19.22
2019-04-25T17:18:05.225Z,19.16
2019-04-25T17:20:37.304Z,19.15
2019-04-25T17:23:07.864Z,18.94
2019-04-25T17:25:38.350Z,18.81
2019-04-25T17:28:09.003Z,18.77
2019-04-25T17:30:42.099Z,18.58
2019-04-25T17:33:15.135Z,18.46
2019-04-25T17:35:53.070Z,18.42
2019-04-25T17:38:25.518Z,18.33
2019-04-25T17:40:56.025Z,18.26
2019-04-25T17:43:26.990Z,18.09
2019-04-25T17:45:57.518Z,17.98
2019-04-25T17:48:28.118Z,17.82
2019-04-25T17:50:58.605Z,17.65
2019-04-25T17:53:29.150Z,17.70
2019-04-25T17:55:59.752Z,17.64
2019-04-25T17:58:30.295Z,17.53
2019-04-25T18:01:00.904Z,17.52
2019-04-25T18:03:33.730Z,17.53
2019-04-25T18:06:04.356Z,17.49
2019-04-25T18:08:35.606Z,17.55
2019-04-25T18:11:06.416Z,17.38
2019-04-25T18:13:38.814Z,17.44
2019-04-25T18:16:13.874Z,17.42
2019-04-25T18:18:46.008Z,17.36
2019-04-25T18:21:16.538Z,17.25
2019-04-25T18:23:48.666Z,17.22
2019-04-25T18:26:20.748Z,17.12
2019-04-25T18:28:55.595Z,17.11
2019-04-25T18:31:26.099Z,17.01
2019-04-25T18:33:58.215Z,17.01
2019-04-25T18:36:37.309Z,16.93
2019-04-25T18:39:21.257Z,16.83
2019-04-25T18:41:59.093Z,16.78
2019-04-25T18:44:29.636Z,16.73
2019-04-25T18:47:00.132Z,16.78
2019-04-25T18:49:30.815Z,16.81
2019-04-25T18:52:05.644Z,16.79
2019-04-25T18:54:38.764Z,16.57
2019-04-25T18:57:10.829Z,16.47
2019-04-25T18:59:46.084Z,16.44
2019-04-25T19:02:27.698Z,16.47
2019-04-25T19:05:02.820Z,16.54
2019-04-25T19:07:33.346Z,16.61
2019-04-25T19:10:04.592Z,16.65
2019-04-25T19:12:35.123Z,16.68
2019-04-25T19:15:07.085Z,16.71
2019-04-25T19:17:37.615Z,16.68
2019-04-25T19:20:08.379Z,16.66
2019-04-25T19:22:40.159Z,16.51
2019-04-25T19:25:11.019Z,16.49
2019-04-25T19:27:42.087Z,16.51
2019-04-25T19:30:14.245Z,16.41
2019-04-25T19:32:45.065Z,16.19
2019-04-25T19:35:15.623Z,16.09
2019-04-25T19:37:46.453Z,16.16
2019-04-25T19:40:25.183Z,16.26
2019-04-25T19:43:13.565Z,16.44
2019-04-25T19:45:45.535Z,16.57
2019-04-25T19:48:16.050Z,16.57
2019-04-25T19:50:46.596Z,16.61
2019-04-25T19:53:17.210Z,16.74
2019-04-25T19:55:47.735Z,16.84
2019-04-25T19:58:18.237Z,16.96
2019-04-25T20:00:50.902Z,17.05
2019-04-25T20:03:23.145Z,17.10
2019-04-25T20:06:07.110Z,17.15
2019-04-25T20:08:39.199Z,17.27
2019-04-25T20:11:11.388Z,17.34
2019-04-25T20:13:42.828Z,17.38
2019-04-25T20:16:14.192Z,17.44
2019-04-25T20:18:45.614Z,17.41
2019-04-25T20:21:16.184Z,17.38
2019-04-25T20:23:46.653Z,17.40
2019-04-25T20:26:17.211Z,17.45
2019-04-25T20:28:48.344Z,17.39
2019-04-25T20:31:18.895Z,17.31
2019-04-25T20:34:02.368Z,17.25
2019-04-25T20:36:21.744Z,17.22
2019-04-25T20:38:53.132Z,17.23
2019-04-25T20:41:24.039Z,17.20
2019-04-25T20:43:54.979Z,17.12
2019-04-25T20:46:25.523Z,17.06
2019-04-25T20:48:56.468Z,16.98
2019-04-25T20:51:27.037Z,16.87
2019-04-25T20:53:57.650Z,16.88
2019-04-25T20:56:28.180Z,16.88
2019-04-25T20:58:58.665Z,16.89
2019-04-25T21:01:29.187Z,16.83
2019-04-25T21:03:59.693Z,16.79
2019-04-25T21:06:31.879Z,16.69
2019-04-25T21:09:02.374Z,16.69
2019-04-25T21:11:32.985Z,16.73
2019-04-25T21:14:05.068Z,16.62
2019-04-25T21:16:43.030Z,16.58
2019-04-25T21:19:15.104Z,16.52
2019-04-25T21:21:45.620Z,16.45
2019-04-25T21:24:16.153Z,16.38
2019-04-25T21:26:46.685Z,16.26
2019-04-25T21:29:17.298Z,16.24
2019-04-25T21:31:47.868Z,16.29
2019-04-25T21:34:25.766Z,16.12
2019-04-25T21:36:51.251Z,16.05
2019-04-25T21:39:40.415Z,16.06
2019-04-25T21:42:13.078Z,16.10
2019-04-25T21:44:43.984Z,16.06
2019-04-25T21:47:14.548Z,15.97
2019-04-25T21:49:45.336Z,15.97
2019-04-25T21:52:15.877Z,15.90
2019-04-25T21:54:48.625Z,15.87
2019-04-25T21:57:18.926Z,15.74
2019-04-25T21:59:58.983Z,15.77
2019-04-25T22:02:22.155Z,15.78
2019-04-25T22:04:54.155Z,15.88
2019-04-25T22:07:25.325Z,16.03
2019-04-25T22:09:56.945Z,16.00
2019-04-25T22:12:27.703Z,15.93
2019-04-25T22:14:59.117Z,15.93
2019-04-25T22:17:29.781Z,16.08
2019-04-25T22:20:00.490Z,16.14
2019-04-25T22:22:31.323Z,16.19
2019-04-25T22:25:02.672Z,16.25
2019-04-25T22:27:36.670Z,16.29
2019-04-25T22:30:09.589Z,16.31
2019-04-25T22:32:41.824Z,16.22
2019-04-25T22:35:19.676Z,16.27
2019-04-25T22:37:50.463Z,16.42
2019-04-25T22:40:21.018Z,16.52
2019-04-25T22:42:52.321Z,16.64
2019-04-25T22:45:22.828Z,16.62
2019-04-25T22:47:53.470Z,16.62
2019-04-25T22:50:24.066Z,16.56
2019-04-25T22:52:54.535Z,16.46
2019-04-25T22:55:24.974Z,16.31
2019-04-25T22:57:55.379Z,16.34
2019-04-25T23:00:30.431Z,16.35
2019-04-25T23:03:09.351Z,16.24
2019-04-25T23:05:41.465Z,16.21
2019-04-25T23:08:12.635Z,16.20
2019-04-25T23:10:43.182Z,16.19
2019-04-25T23:13:13.656Z,16.17
2019-04-25T23:15:44.076Z,16.08
2019-04-25T23:18:14.780Z,16.06
2019-04-25T23:20:46.735Z,16.13
2019-04-25T23:23:17.213Z,15.99
2019-04-25T23:25:54.959Z,16.01
2019-04-25T23:28:30.203Z,16.02
2019-04-25T23:31:05.396Z,16.07
2019-04-25T23:33:36.875Z,16.03
2019-04-25T23:36:07.716Z,15.99
2019-04-25T23:38:38.208Z,15.89
2019-04-25T23:41:09.365Z,15.74
2019-04-25T23:43:40.209Z,15.89
2019-04-25T23:46:10.669Z,15.88
2019-04-25T23:48:41.477Z,15.92
2019-04-25T23:51:11.871Z,15.78
2019-04-25T23:53:42.750Z,15.86
2019-04-25T23:56:13.358Z,15.96
2019-04-25T23:58:44.227Z,16.06
